Madison, AL

3:49 PM CST on January 22, 2017 (GMT -0600)
Taylors Crossing | | Change Station
Active Advisory: Wind Advisory

Elev 650 ft 34.70 °N, 86.79 °W | Updated 34 seconds ago

Rain
Rain Mist
57.2 °F
Feels Like 57.2 °F
N
0.0
Wind Variable Wind from North

Today
High -- | Low -- °F
--% Chance of Precip.
Yesterday
High -- | Low -- °F
Precip. -- in
Pressure 29.25 in
Visibility 4.0 miles
Clouds Scattered Clouds 2500 ft
Overcast 3200 ft
Dew Point 54 °F
Humidity 91%
Rainfall 1.14 in
Snow Depth Not available.
6:51 AM 5:06 PM
Waning Crescent, 23% visible
SPECI KHSV 222124Z 32007KT 4SM RA BR SCT025 OVC032 15/14 A2925 RMK AO2 CB DSNT S P0008 T01500139
Pressure 29.25 in
Visibility 4.0 miles
Clouds Scattered Clouds 2500 ft
Overcast 3200 ft
Dew Point 54 °F
Humidity 91%
Rainfall 1.14 in
Snow Depth Not available.
6:51 AM 5:06 PM
Waning Crescent, 23% visible
SPECI KHSV 222124Z 32007KT 4SM RA BR SCT025 OVC032 15/14 A2925 RMK AO2 CB DSNT S P0008 T01500139

Get Your Daily Forecast Email!

Thanks for signing up!

Be on the lookout for a verification email in your inbox.

You'll start receiving the daily forecast at 8 AM.

×

10-Day Weather Forecast

Almanac

Astronomy

Jan. 22, 2017 Rise Set
Actual Time
Civil Twilight
Nautical Twilight
Astronomical Twilight
Moon
Length of Visible Light
Length of Day
Tomorrow will be .
, % of the Moon is Illuminated

Today's Extremes

State Highs State Lows

Community

WunderPhotos

Upload Photos

1,962,540 photos uploaded!

WunderBlog® & News

Nearby

Air Quality

  Air Quality AQ Index Pollutant
Not available.

Snow Depth

Station Depth Elevation

Earthquake Activity

City Distance Mag. Time & Date
Minimum magnitude displayed is 2.5.

Coastal Water Temperatures

Place Temperature

Stations

Nearby Weather Stations

Station Location Temp. Windchill Dew Point Humidity Wind Precip. Elev Updated Type
                   

Watches & Warnings

Wind Advisory
Issued: 2:18 PM CST Jan. 22, 2017 – National Weather Service

... Wind Advisory remains in effect from 3 am to 6 PM CST Monday...

* timing and areas affected... all of north Alabama and southern
middle Tennessee starting tonight at 3 am CST and continuing
through Monday evening at 6 PM CST.

* Winds... northwest winds will increase tonight to around 25 mph with
gusts between 35 and 40 mph.

* Impacts... winds of this magnitude will blow around unsecured
lawn items... and make driving difficult for high profile
vehicles.

Precautionary/preparedness actions...

A Wind Advisory means that sustained wind speeds of at least
25 mph... or gusts of at least 35 mph... are expected across the
affected area. Winds this strong can make driving difficult...
especially for high profile vehicles. Use extra caution. In
addition... ensure all loose outdoor objects remain secure...
including patio furniture and trash cans.